Time;durP1;ratioP1;P1;durP2;ratioP2;P2;SDS_P1;SDS_P2;PMS_P1;PMS_P2;Temp;Humidity;BMP_temperature;BMP_pressure;BME280_temperature;BME280_humidity;BME280_pressure;Samples;Min_cycle;Max_cycle;Signal;HPM_P1;HPM_P2
2023/11/25 00:00:45;;;;;;;16.27;2.80;;;2.40;99.90;;;;;;5006773;28;20041;-74
2023/11/25 00:03:11;;;;;;;17.15;3.13;;;2.40;99.90;;;;;;5010273;28;20038;-75
2023/11/25 00:05:37;;;;;;;10.40;2.67;;;2.30;99.90;;;;;;5010414;28;20522;-74
2023/11/25 00:08:03;;;;;;;14.13;2.95;;;2.30;99.90;;;;;;4989760;28;20033;-74
2023/11/25 00:10:29;;;;;;;14.88;3.13;;;2.30;99.90;;;;;;5000108;28;20095;-75
2023/11/25 00:12:55;;;;;;;16.45;3.00;;;2.20;99.90;;;;;;5014278;28;20034;-74
2023/11/25 00:15:23;;;;;;;16.95;3.00;;;2.20;99.90;;;;;;5005942;28;20153;-74
2023/11/25 00:17:50;;;;;;;10.98;2.58;;;2.20;99.90;;;;;;4987804;28;20037;-74
2023/11/25 00:20:16;;;;;;;13.02;3.08;;;2.20;99.90;;;;;;5004906;28;20046;-75
2023/11/25 00:22:42;;;;;;;15.02;3.30;;;2.20;99.90;;;;;;5015464;28;20048;-75
2023/11/25 00:25:09;;;;;;;16.10;3.08;;;2.10;99.90;;;;;;5003846;28;20073;-74
2023/11/25 00:27:36;;;;;;;13.23;2.85;;;2.10;99.90;;;;;;4989249;28;20471;-74
2023/11/25 00:30:04;;;;;;;21.25;3.35;;;2.10;99.90;;;;;;4992511;28;20734;-74
2023/11/25 00:32:31;;;;;;;12.77;2.40;;;2.00;99.90;;;;;;5005630;28;20072;-74
2023/11/25 00:34:57;;;;;;;18.35;2.80;;;2.00;99.90;;;;;;5008065;28;20535;-74
2023/11/25 00:37:22;;;;;;;13.55;3.08;;;1.90;99.90;;;;;;5010788;28;20045;-74
2023/11/25 00:39:48;;;;;;;14.77;2.80;;;1.80;99.90;;;;;;5011152;28;20041;-75
2023/11/25 00:42:15;;;;;;;13.07;2.95;;;1.90;99.90;;;;;;5005570;28;20057;-75
2023/11/25 00:44:40;;;;;;;16.75;3.17;;;1.90;99.90;;;;;;5006171;28;20041;-74
2023/11/25 00:47:11;;;;;;;16.75;2.67;;;1.80;99.90;;;;;;5007018;28;20049;-74
2023/11/25 00:49:38;;;;;;;14.65;2.65;;;1.90;99.90;;;;;;5002396;28;20052;-74
2023/11/25 00:52:07;;;;;;;17.63;2.97;;;1.90;99.90;;;;;;4996444;28;20077;-75
2023/11/25 00:54:33;;;;;;;15.85;3.10;;;1.80;99.90;;;;;;5007723;28;20415;-75
2023/11/25 00:57:01;;;;;;;15.27;2.85;;;1.80;99.90;;;;;;5008622;28;20428;-75
2023/11/25 00:59:27;;;;;;;17.17;3.50;;;1.80;99.90;;;;;;5005902;28;20041;-74
2023/11/25 01:01:53;;;;;;;14.38;3.20;;;1.90;99.90;;;;;;5010745;28;20065;-73
2023/11/25 01:04:18;;;;;;;18.55;3.75;;;1.90;99.90;;;;;;5009207;28;20088;-73
2023/11/25 01:06:47;;;;;;;12.43;3.03;;;1.90;99.90;;;;;;4988211;28;20029;-73
2023/11/25 01:09:16;;;;;;;13.80;2.70;;;2.00;99.90;;;;;;5006239;28;20074;-73
2023/11/25 01:11:42;;;;;;;12.48;2.83;;;2.10;99.90;;;;;;5003973;28;20251;-73
2023/11/25 01:14:08;;;;;;;14.63;2.95;;;2.10;99.90;;;;;;4988313;28;20045;-73
2023/11/25 01:16:35;;;;;;;15.63;3.05;;;2.20;99.90;;;;;;4990833;28;20072;-73
2023/11/25 01:19:00;;;;;;;18.20;3.42;;;2.20;99.90;;;;;;5002312;28;20053;-73
2023/11/25 01:21:26;;;;;;;15.18;3.42;;;2.30;99.90;;;;;;5007244;28;20045;-73
2023/11/25 01:23:52;;;;;;;16.55;3.75;;;2.40;99.90;;;;;;5005454;28;20125;-73
2023/11/25 01:26:18;;;;;;;21.13;4.30;;;2.50;99.90;;;;;;4993767;28;20053;-73
2023/11/25 01:28:44;;;;;;;13.10;3.10;;;2.50;99.90;;;;;;5009930;28;20476;-73
2023/11/25 01:31:10;;;;;;;15.63;2.90;;;2.60;99.90;;;;;;4991296;28;20045;-73
2023/11/25 01:33:40;;;;;;;16.50;3.80;;;2.60;99.90;;;;;;5011359;28;20120;-72
2023/11/25 01:36:09;;;;;;;19.67;3.53;;;2.60;99.90;;;;;;5003933;28;20519;-73
2023/11/25 01:38:41;;;;;;;16.88;3.30;;;2.60;99.90;;;;;;4993660;28;20049;-73
2023/11/25 01:41:07;;;;;;;19.38;3.30;;;2.60;99.90;;;;;;5006269;28;20512;-73
2023/11/25 01:43:32;;;;;;;17.13;3.40;;;2.60;99.90;;;;;;4991798;28;20134;-73
2023/11/25 01:46:01;;;;;;;21.52;3.83;;;2.60;99.90;;;;;;5003492;28;20120;-73
2023/11/25 01:48:28;;;;;;;22.98;3.92;;;2.70;99.90;;;;;;4990731;28;20041;-73
2023/11/25 01:50:55;;;;;;;23.40;4.32;;;2.60;99.90;;;;;;5015427;28;20466;-73
2023/11/25 01:53:22;;;;;;;20.83;3.58;;;2.60;99.90;;;;;;5007053;28;20053;-74
2023/11/25 01:55:51;;;;;;;23.75;4.28;;;2.70;99.90;;;;;;4984559;28;20045;-72
2023/11/25 01:58:20;;;;;;;21.93;4.37;;;2.70;99.90;;;;;;4986570;28;20519;-72
2023/11/25 02:00:46;;;;;;;19.30;4.03;;;2.70;99.90;;;;;;5009100;28;20056;-72
2023/11/25 02:03:18;;;;;;;19.45;3.63;;;2.80;99.90;;;;;;4984660;28;20618;-72
2023/11/25 02:05:45;;;;;;;16.50;3.40;;;2.90;99.90;;;;;;5004181;28;20034;-73
2023/11/25 02:08:11;;;;;;;22.98;3.80;;;3.00;99.90;;;;;;5006267;28;20045;-73
2023/11/25 02:10:41;;;;;;;21.25;4.05;;;3.10;99.90;;;;;;4981074;28;20045;-73
2023/11/25 02:13:09;;;;;;;25.50;3.90;;;3.10;99.90;;;;;;4972202;28;20396;-73
2023/11/25 02:15:36;;;;;;;18.15;3.72;;;3.20;99.90;;;;;;5004284;28;20060;-73
2023/11/25 02:18:03;;;;;;;21.00;3.78;;;3.30;99.90;;;;;;5003092;28;20053;-73
2023/11/25 02:20:42;;;;;;;15.35;3.90;;;3.40;99.90;;;;;;5003629;28;20053;-73
2023/11/25 02:23:19;;;;;;;19.88;3.92;;;3.40;99.90;;;;;;5012836;28;20038;-73
2023/11/25 02:25:49;;;;;;;16.45;4.50;;;3.40;99.90;;;;;;5012319;28;20105;-73
2023/11/25 02:28:16;;;;;;;18.38;3.53;;;3.40;99.90;;;;;;5004048;28;20061;-73
2023/11/25 02:30:46;;;;;;;23.38;4.07;;;3.40;99.90;;;;;;4997505;28;20045;-73
2023/11/25 02:33:14;;;;;;;19.80;3.63;;;3.30;99.90;;;;;;5010204;28;20307;-73
2023/11/25 02:35:42;;;;;;;14.55;3.20;;;3.40;99.90;;;;;;5011716;28;20100;-73
2023/11/25 02:38:11;;;;;;;18.63;3.28;;;3.30;99.90;;;;;;4994346;28;20034;-72
2023/11/25 02:40:39;;;;;;;18.30;3.92;;;3.30;99.90;;;;;;5006804;28;20052;-73
2023/11/25 02:43:07;;;;;;;18.00;4.15;;;3.30;99.90;;;;;;5002101;28;20539;-73
2023/11/25 02:45:33;;;;;;;21.77;4.43;;;3.30;99.90;;;;;;4993165;28;20048;-73
2023/11/25 02:47:59;;;;;;;20.83;3.55;;;3.20;99.90;;;;;;5007989;28;20052;-75
2023/11/25 02:50:25;;;;;;;19.35;3.33;;;3.20;99.90;;;;;;5007955;28;20037;-75
2023/11/25 02:52:54;;;;;;;21.10;4.90;;;3.20;99.90;;;;;;5005364;28;20061;-75
2023/11/25 02:55:20;;;;;;;17.65;3.90;;;3.10;99.90;;;;;;5009088;28;20130;-76
2023/11/25 02:57:46;;;;;;;22.00;4.30;;;3.10;99.90;;;;;;4992759;28;20053;-75
2023/11/25 03:00:28;;;;;;;29.10;4.68;;;3.10;99.90;;;;;;4989481;28;20103;-76
2023/11/25 03:03:00;;;;;;;22.17;4.05;;;3.10;99.90;;;;;;4997569;28;20709;-75
2023/11/25 03:05:31;;;;;;;27.45;4.47;;;3.10;99.90;;;;;;4991719;28;20077;-76
2023/11/25 03:07:57;;;;;;;18.17;3.72;;;3.10;99.90;;;;;;5007694;28;20045;-75
2023/11/25 03:10:25;;;;;;;21.95;4.18;;;3.00;99.90;;;;;;5007741;28;20056;-75
2023/11/25 03:12:51;;;;;;;23.25;4.45;;;3.00;99.90;;;;;;4994754;28;20052;-75
2023/11/25 03:15:20;;;;;;;22.08;4.18;;;3.10;99.90;;;;;;4999617;28;20046;-75
2023/11/25 03:17:46;;;;;;;23.83;4.30;;;3.00;99.90;;;;;;5004913;28;20400;-75
2023/11/25 03:20:12;;;;;;;25.33;4.75;;;3.10;99.90;;;;;;5006212;28;20329;-75
2023/11/25 03:22:38;;;;;;;28.85;4.68;;;3.00;99.90;;;;;;4992527;28;20045;-75
2023/11/25 03:25:05;;;;;;;20.20;4.05;;;3.00;99.90;;;;;;4983292;28;20385;-73
2023/11/25 03:27:31;;;;;;;24.48;4.07;;;3.00;99.90;;;;;;5008573;28;20629;-73
2023/11/25 03:29:58;;;;;;;22.35;4.80;;;3.00;99.90;;;;;;5005330;28;20094;-73
2023/11/25 03:32:26;;;;;;;24.13;4.38;;;3.00;99.90;;;;;;5009930;28;20049;-73
2023/11/25 03:34:52;;;;;;;18.98;4.22;;;3.00;99.90;;;;;;5008005;28;20041;-73
2023/11/25 03:37:19;;;;;;;24.05;4.38;;;2.90;99.90;;;;;;5010623;28;20428;-73
2023/11/25 03:39:45;;;;;;;23.48;4.00;;;3.00;99.90;;;;;;4991648;28;20068;-73
2023/11/25 03:42:10;;;;;;;19.15;4.50;;;3.00;99.90;;;;;;5004067;28;20568;-73
2023/11/25 03:44:36;;;;;;;20.42;4.28;;;3.10;99.90;;;;;;4998459;28;20555;-73
2023/11/25 03:47:03;;;;;;;16.67;4.00;;;3.10;99.90;;;;;;4990452;28;20041;-73
2023/11/25 03:49:30;;;;;;;17.40;3.65;;;3.10;99.90;;;;;;5010270;28;20499;-73
2023/11/25 03:51:56;;;;;;;14.93;3.65;;;3.20;99.90;;;;;;5002283;28;20045;-72
2023/11/25 03:54:24;;;;;;;21.30;3.67;;;3.20;99.90;;;;;;4998564;28;20591;-72
2023/11/25 03:56:51;;;;;;;20.45;4.20;;;3.30;99.90;;;;;;5008769;28;20044;-72
2023/11/25 03:59:17;;;;;;;15.45;3.92;;;3.40;99.90;;;;;;5003343;28;20079;-72
2023/11/25 04:01:44;;;;;;;16.63;4.43;;;3.40;99.90;;;;;;5005875;28;20041;-72
2023/11/25 04:04:11;;;;;;;21.67;4.30;;;3.50;99.90;;;;;;4994651;28;20484;-72
2023/11/25 04:06:37;;;;;;;20.77;3.83;;;3.50;99.90;;;;;;5009413;28;20396;-72
2023/11/25 04:09:03;;;;;;;15.77;3.08;;;3.60;99.90;;;;;;4985034;28;20054;-72
2023/11/25 04:11:29;;;;;;;13.63;2.80;;;3.60;99.90;;;;;;5004333;28;20061;-72
2023/11/25 04:13:57;;;;;;;17.60;3.17;;;3.70;99.90;;;;;;5008598;28;20064;-72
2023/11/25 04:16:24;;;;;;;13.07;2.78;;;3.70;99.90;;;;;;5000147;28;20406;-72
2023/11/25 04:18:52;;;;;;;14.18;2.80;;;3.70;99.90;;;;;;4992886;28;20419;-72
2023/11/25 04:21:24;;;;;;;12.45;2.70;;;3.70;99.90;;;;;;5011262;28;20049;-72
2023/11/25 04:23:55;;;;;;;15.57;2.90;;;3.70;99.90;;;;;;4992025;28;20038;-72
2023/11/25 04:26:22;;;;;;;13.73;2.60;;;3.70;99.90;;;;;;4993030;28;20492;-72
2023/11/25 04:28:48;;;;;;;12.55;2.17;;;3.70;99.90;;;;;;5003403;28;20033;-72
2023/11/25 04:31:14;;;;;;;12.32;2.22;;;3.70;99.90;;;;;;5011472;28;20041;-72
2023/11/25 04:33:41;;;;;;;10.80;2.13;;;3.60;99.90;;;;;;5008678;28;20049;-72
2023/11/25 04:36:07;;;;;;;9.00;2.03;;;3.60;99.90;;;;;;5011465;28;20068;-72
2023/11/25 04:38:33;;;;;;;12.13;1.83;;;3.60;99.90;;;;;;5008056;28;20049;-72
2023/11/25 04:40:59;;;;;;;8.40;1.58;;;3.50;99.90;;;;;;4990987;28;20049;-72
2023/11/25 04:43:25;;;;;;;9.13;1.67;;;3.50;99.90;;;;;;5006614;28;20048;-72
2023/11/25 04:45:50;;;;;;;9.32;1.13;;;3.50;99.90;;;;;;5010303;28;20431;-72
2023/11/25 04:48:16;;;;;;;4.72;1.00;;;3.50;99.90;;;;;;4988426;28;20038;-72
2023/11/25 04:50:42;;;;;;;7.57;0.93;;;3.50;99.90;;;;;;4985124;28;20180;-72
2023/11/25 04:53:07;;;;;;;5.20;0.82;;;3.40;99.90;;;;;;5007821;28;20061;-72
2023/11/25 04:55:33;;;;;;;4.20;0.88;;;3.50;99.90;;;;;;4990579;28;20404;-72
2023/11/25 04:57:59;;;;;;;5.00;0.98;;;3.50;99.90;;;;;;5008095;28;20037;-72
2023/11/25 05:00:25;;;;;;;4.88;0.50;;;3.50;99.90;;;;;;5001878;28;20045;-72
2023/11/25 05:02:51;;;;;;;5.15;1.15;;;3.40;99.90;;;;;;5011232;28;20481;-72
2023/11/25 05:05:17;;;;;;;3.78;0.80;;;3.40;99.90;;;;;;4984910;28;20044;-72
2023/11/25 05:07:43;;;;;;;3.95;0.73;;;3.40;99.90;;;;;;4987063;28;20037;-72
2023/11/25 05:10:09;;;;;;;7.70;1.23;;;3.40;99.90;;;;;;5006604;28;20042;-72
2023/11/25 05:12:36;;;;;;;7.63;0.88;;;3.40;99.90;;;;;;4989747;28;20412;-72
2023/11/25 05:15:03;;;;;;;6.18;1.40;;;3.40;99.90;;;;;;5009766;28;20044;-72
2023/11/25 05:17:29;;;;;;;8.05;1.40;;;3.40;99.90;;;;;;4987934;28;20050;-71
2023/11/25 05:19:55;;;;;;;7.65;1.42;;;3.40;99.90;;;;;;5009662;28;20500;-72
2023/11/25 05:22:21;;;;;;;6.85;1.77;;;3.50;99.90;;;;;;4989868;28;20042;-72
2023/11/25 05:24:47;;;;;;;10.88;1.67;;;3.50;99.90;;;;;;5004112;28;20037;-72
2023/11/25 05:27:13;;;;;;;6.30;1.27;;;3.60;99.90;;;;;;5004881;28;20047;-72
2023/11/25 05:29:39;;;;;;;6.00;1.27;;;3.60;99.90;;;;;;5001281;28;20044;-72
2023/11/25 05:32:08;;;;;;;10.40;1.70;;;3.60;99.90;;;;;;5007650;28;20098;-71
2023/11/25 05:34:34;;;;;;;13.10;2.38;;;3.70;99.90;;;;;;4999762;28;20100;-74
2023/11/25 05:37:00;;;;;;;13.10;2.25;;;3.70;99.90;;;;;;4971557;28;20068;-72
2023/11/25 05:39:26;;;;;;;11.27;1.90;;;3.80;99.90;;;;;;4987256;28;20060;-74
2023/11/25 05:41:55;;;;;;;15.93;2.05;;;3.80;99.90;;;;;;5003124;28;20463;-72
2023/11/25 05:44:21;;;;;;;9.32;2.13;;;3.80;99.90;;;;;;5006462;28;20420;-72
2023/11/25 05:46:47;;;;;;;12.63;2.15;;;3.80;99.90;;;;;;4990297;28;20045;-74
2023/11/25 05:49:13;;;;;;;12.63;2.50;;;3.90;99.90;;;;;;4988759;28;20520;-72
2023/11/25 05:51:41;;;;;;;16.80;2.78;;;3.90;99.90;;;;;;5001971;28;20045;-72
2023/11/25 05:54:08;;;;;;;15.82;2.60;;;3.80;99.90;;;;;;5004156;28;20116;-74
2023/11/25 05:56:34;;;;;;;13.00;2.33;;;3.90;99.90;;;;;;5005421;28;20118;-73
2023/11/25 05:59:02;;;;;;;15.70;2.45;;;3.80;99.90;;;;;;5000921;28;20037;-73
2023/11/25 06:01:28;;;;;;;14.77;2.83;;;3.80;99.90;;;;;;5001876;28;20049;-73
2023/11/25 06:03:54;;;;;;;13.73;2.38;;;3.80;99.90;;;;;;4986496;28;20099;-73
2023/11/25 06:06:21;;;;;;;13.63;2.42;;;3.80;99.90;;;;;;4992600;28;20375;-73
2023/11/25 06:08:50;;;;;;;13.20;2.72;;;3.80;99.90;;;;;;4986945;28;20045;-73
2023/11/25 06:11:26;;;;;;;17.58;3.25;;;3.70;99.90;;;;;;4981408;28;20045;-73
2023/11/25 06:13:56;;;;;;;19.70;3.00;;;3.70;99.90;;;;;;5000335;28;20060;-73
2023/11/25 06:16:23;;;;;;;15.30;2.83;;;3.70;99.90;;;;;;5007294;28;20079;-73
2023/11/25 06:18:49;;;;;;;17.10;3.00;;;3.70;99.90;;;;;;4987928;28;20041;-73
2023/11/25 06:21:15;;;;;;;15.93;2.55;;;3.70;99.90;;;;;;5002030;28;20817;-73
2023/11/25 06:23:42;;;;;;;17.35;2.72;;;3.70;99.90;;;;;;5003542;28;20046;-73
2023/11/25 06:26:12;;;;;;;8.93;2.10;;;3.70;99.90;;;;;;4992724;28;20471;-72
2023/11/25 06:28:48;;;;;;;15.50;2.38;;;3.70;99.90;;;;;;5002373;28;20049;-72
2023/11/25 06:31:15;;;;;;;11.57;2.17;;;3.80;99.90;;;;;;5005765;28;20132;-73
2023/11/25 06:33:41;;;;;;;14.52;2.20;;;3.90;99.90;;;;;;4986024;28;20034;-74
2023/11/25 06:36:08;;;;;;;8.60;1.90;;;3.90;99.90;;;;;;5003585;28;20455;-75
2023/11/25 06:38:34;;;;;;;9.38;1.70;;;4.00;99.90;;;;;;4991295;28;20084;-74
2023/11/25 06:41:03;;;;;;;8.82;1.50;;;4.10;99.90;;;;;;4994554;28;20054;-74
2023/11/25 06:43:29;;;;;;;12.10;1.80;;;4.00;99.90;;;;;;4992560;28;20076;-74
2023/11/25 06:45:55;;;;;;;9.07;1.48;;;4.00;99.90;;;;;;5000067;28;20045;-73
2023/11/25 06:48:25;;;;;;;10.48;1.88;;;4.00;99.90;;;;;;4990253;28;20046;-73
2023/11/25 06:50:54;;;;;;;9.03;1.73;;;4.00;99.90;;;;;;5000673;28;20045;-73
2023/11/25 06:53:19;;;;;;;8.45;1.80;;;4.00;99.90;;;;;;4991904;28;20849;-73
2023/11/25 06:55:46;;;;;;;8.85;1.75;;;4.00;99.90;;;;;;5003137;28;20081;-73
2023/11/25 06:58:12;;;;;;;14.65;2.15;;;3.90;99.90;;;;;;4993012;28;20298;-73
2023/11/25 07:00:39;;;;;;;9.18;1.48;;;3.90;99.90;;;;;;4986637;28;20038;-73
2023/11/25 07:03:05;;;;;;;9.73;1.58;;;3.90;99.90;;;;;;5001830;28;20073;-73
2023/11/25 07:05:31;;;;;;;10.35;1.25;;;3.90;99.90;;;;;;5002124;28;20091;-74
2023/11/25 07:07:57;;;;;;;10.52;1.38;;;3.80;99.90;;;;;;4990462;28;20144;-73
2023/11/25 07:10:23;;;;;;;7.05;1.27;;;3.80;99.90;;;;;;5001126;28;20146;-74
2023/11/25 07:12:49;;;;;;;8.45;1.40;;;3.70;99.90;;;;;;4993127;28;20073;-73
2023/11/25 07:15:15;;;;;;;11.68;1.85;;;3.70;99.90;;;;;;4989338;28;20309;-73
2023/11/25 07:17:41;;;;;;;10.88;1.42;;;3.70;99.90;;;;;;5009612;28;20045;-73
2023/11/25 07:20:14;;;;;;;7.22;1.42;;;3.70;99.90;;;;;;4990950;28;20037;-74
2023/11/25 07:22:41;;;;;;;4.53;2.10;;;3.80;99.90;;;;;;4986144;28;20140;-74
2023/11/25 07:25:12;;;;;;;5.05;1.23;;;3.80;99.90;;;;;;5005752;28;20056;-74
2023/11/25 07:27:45;;;;;;;11.60;2.13;;;3.80;99.90;;;;;;4987828;28;20132;-74
2023/11/25 07:30:12;;;;;;;11.38;1.90;;;3.80;99.90;;;;;;5010145;28;20033;-74
2023/11/25 07:32:38;;;;;;;9.73;1.63;;;3.90;99.90;;;;;;4996460;28;20525;-74
2023/11/25 07:35:07;;;;;;;8.63;1.40;;;3.80;99.90;;;;;;5004958;28;20589;-74
2023/11/25 07:37:40;;;;;;;12.23;1.70;;;3.80;99.90;;;;;;4984619;28;20049;-74
2023/11/25 07:40:12;;;;;;;10.85;2.13;;;3.80;99.90;;;;;;4998884;28;20523;-74
2023/11/25 07:42:38;;;;;;;9.23;2.42;;;3.80;99.90;;;;;;5002160;28;20408;-74
2023/11/25 07:45:09;;;;;;;13.73;2.40;;;3.80;99.90;;;;;;5011374;28;20038;-76
2023/11/25 07:47:35;;;;;;;18.80;2.72;;;3.90;99.90;;;;;;4988114;28;20049;-74
2023/11/25 07:50:01;;;;;;;14.98;3.47;;;3.90;99.90;;;;;;5005764;28;20132;-74
2023/11/25 07:52:27;;;;;;;19.35;4.25;;;3.90;99.90;;;;;;5000302;28;20129;-74
2023/11/25 07:54:53;;;;;;;13.65;2.88;;;4.00;99.90;;;;;;5003790;28;20451;-74
2023/11/25 07:57:19;;;;;;;16.83;3.38;;;4.00;99.90;;;;;;5006788;28;20099;-75
2023/11/25 07:59:45;;;;;;;14.05;3.05;;;4.00;99.90;;;;;;5003326;28;20300;-74
2023/11/25 08:02:10;;;;;;;18.17;3.22;;;4.00;99.90;;;;;;5002683;28;20034;-75
2023/11/25 08:04:36;;;;;;;18.10;3.40;;;4.10;99.90;;;;;;4999436;28;20049;-74
2023/11/25 08:07:02;;;;;;;21.25;3.95;;;4.10;99.90;;;;;;4990836;28;20053;-74
2023/11/25 08:09:28;;;;;;;18.13;2.92;;;4.20;99.90;;;;;;5000852;28;20041;-74
2023/11/25 08:11:55;;;;;;;22.38;3.40;;;4.20;99.90;;;;;;4986920;28;20045;-74
2023/11/25 08:14:24;;;;;;;19.45;2.95;;;4.20;99.90;;;;;;5005872;28;20129;-74
2023/11/25 08:16:50;;;;;;;23.20;3.72;;;4.20;99.90;;;;;;5005771;28;20052;-74
2023/11/25 08:19:17;;;;;;;20.38;4.50;;;4.30;99.90;;;;;;5003232;28;20053;-75
2023/11/25 08:21:43;;;;;;;22.00;3.13;;;4.20;99.90;;;;;;4986733;28;20099;-74
2023/11/25 08:24:09;;;;;;;13.23;3.10;;;4.30;99.90;;;;;;4992404;28;20033;-75
2023/11/25 08:26:35;;;;;;;17.80;2.75;;;4.30;99.90;;;;;;5001105;28;20642;-74
2023/11/25 08:29:02;;;;;;;16.63;2.47;;;4.40;99.90;;;;;;4999557;28;20258;-74
2023/11/25 08:31:28;;;;;;;14.40;3.25;;;4.50;99.90;;;;;;4982666;28;20057;-74
2023/11/25 08:33:54;;;;;;;13.23;3.00;;;4.60;99.90;;;;;;5002038;28;20042;-74
2023/11/25 08:36:20;;;;;;;12.95;2.65;;;4.70;99.90;;;;;;5001309;28;20041;-74
2023/11/25 08:38:46;;;;;;;16.23;2.60;;;4.80;99.90;;;;;;5005960;28;20131;-74
2023/11/25 08:41:15;;;;;;;21.77;3.67;;;5.00;99.90;;;;;;4976899;28;20077;-74
2023/11/25 08:43:45;;;;;;;18.27;2.95;;;5.00;99.90;;;;;;4987676;28;20492;-73
2023/11/25 08:46:11;;;;;;;18.42;3.15;;;5.10;99.90;;;;;;5007417;28;20128;-74
2023/11/25 08:48:38;;;;;;;21.73;2.97;;;5.10;99.90;;;;;;5006994;28;20154;-74
2023/11/25 08:51:05;;;;;;;15.68;2.65;;;5.20;99.90;;;;;;5003471;28;20044;-75
2023/11/25 08:53:31;;;;;;;15.73;3.30;;;5.20;99.90;;;;;;5000114;28;20488;-75
2023/11/25 08:56:02;;;;;;;19.00;2.95;;;5.10;99.90;;;;;;4988580;28;20072;-77
2023/11/25 08:58:29;;;;;;;;;;;5.20;99.90;;;;;;4998315;28;20127;-75
2023/11/25 09:00:55;;;;;;;24.48;3.08;;;5.20;99.90;;;;;;5002527;28;19921;-75
2023/11/25 09:03:23;;;;;;;14.70;2.65;;;5.20;99.90;;;;;;4987139;28;20055;-75
2023/11/25 09:05:49;;;;;;;14.80;3.42;;;5.30;99.90;;;;;;5003405;28;20046;-75
2023/11/25 09:08:16;;;;;;;19.27;3.92;;;5.20;99.90;;;;;;4989555;28;20046;-76
2023/11/25 09:10:42;;;;;;;22.08;7.88;;;5.20;99.90;;;;;;5004950;28;20490;-76
2023/11/25 09:13:08;;;;;;;22.02;4.55;;;5.20;99.90;;;;;;4992287;28;20656;-76
2023/11/25 09:15:34;;;;;;;12.73;3.20;;;5.20;99.90;;;;;;4995789;28;20047;-76
2023/11/25 09:18:03;;;;;;;16.70;2.78;;;5.20;99.90;;;;;;4981909;28;20121;-76
2023/11/25 09:20:29;;;;;;;23.90;3.28;;;5.20;99.90;;;;;;4988594;28;20064;-76
2023/11/25 09:22:55;;;;;;;18.40;2.78;;;5.10;99.90;;;;;;4980019;28;20116;-76
2023/11/25 09:25:24;;;;;;;15.13;3.17;;;5.10;99.90;;;;;;4992907;28;20244;-76
2023/11/25 09:27:51;;;;;;;24.67;3.38;;;5.10;99.90;;;;;;5018267;28;20060;-76
2023/11/25 09:30:18;;;;;;;21.05;3.20;;;5.00;99.90;;;;;;5003218;28;20089;-76
2023/11/25 09:32:44;;;;;;;17.17;3.35;;;5.00;99.90;;;;;;4989155;28;20045;-76
2023/11/25 09:35:11;;;;;;;24.30;3.25;;;5.10;99.90;;;;;;4988566;28;20045;-76
2023/11/25 09:37:41;;;;;;;23.65;4.22;;;5.10;99.90;;;;;;5000718;28;20488;-76
2023/11/25 09:40:14;;;;;;;21.58;3.70;;;5.20;99.90;;;;;;5001317;28;20037;-76
2023/11/25 09:42:44;;;;;;;21.02;3.80;;;5.30;99.90;;;;;;4996802;28;20063;-76
2023/11/25 09:45:11;;;;;;;21.17;4.60;;;5.40;99.90;;;;;;4988107;28;20041;-76
2023/11/25 09:47:38;;;;;;;20.05;6.43;;;5.50;99.90;;;;;;4983985;28;20533;-77
2023/11/25 09:50:16;;;;;;;15.65;4.82;;;5.60;99.90;;;;;;4996594;28;20034;-76
2023/11/25 09:52:52;;;;;;;20.20;6.05;;;5.60;99.90;;;;;;4995871;28;20094;-76
2023/11/25 09:55:24;;;;;;;17.20;5.07;;;5.70;99.90;;;;;;5004009;28;20049;-76
2023/11/25 09:57:57;;;;;;;15.32;3.97;;;5.70;99.90;;;;;;4980382;28;20076;-77
2023/11/25 10:00:26;;;;;;;20.92;6.00;;;5.70;99.90;;;;;;4999470;28;20046;-76
2023/11/25 10:02:54;;;;;;;12.30;3.53;;;5.70;99.90;;;;;;4995950;28;20553;-76
2023/11/25 10:05:20;;;;;;;12.38;3.88;;;5.70;99.90;;;;;;5005251;28;20079;-76
2023/11/25 10:07:46;;;;;;;13.00;4.32;;;5.80;99.90;;;;;;5000592;28;20522;-76
2023/11/25 10:10:13;;;;;;;14.38;4.05;;;5.80;99.90;;;;;;4996262;28;20042;-76
2023/11/25 10:12:42;;;;;;;11.27;2.95;;;5.90;99.90;;;;;;4998886;28;20080;-76
2023/11/25 10:15:10;;;;;;;14.57;3.97;;;5.80;99.90;;;;;;5018939;28;20148;-76
2023/11/25 10:17:37;;;;;;;12.38;3.20;;;5.90;99.90;;;;;;4986651;28;20061;-76
2023/11/25 10:20:25;;;;;;;11.27;2.88;;;5.90;99.90;;;;;;4987023;28;20404;-77
2023/11/25 10:22:57;;;;;;;13.38;3.05;;;5.90;99.90;;;;;;4999176;28;20046;-77
2023/11/25 10:25:27;;;;;;;10.27;4.13;;;6.00;99.90;;;;;;5002600;28;20204;-77
2023/11/25 10:27:54;;;;;;;9.47;2.90;;;6.10;99.90;;;;;;4988850;28;20464;-75
2023/11/25 10:30:21;;;;;;;9.73;3.03;;;6.10;99.90;;;;;;5004971;28;20441;-77
2023/11/25 10:32:52;;;;;;;12.98;2.65;;;6.20;99.90;;;;;;4987918;28;20140;-76
2023/11/25 10:35:18;;;;;;;15.15;3.58;;;6.30;99.90;;;;;;4984797;28;20057;-76
2023/11/25 10:37:44;;;;;;;11.13;2.50;;;6.40;99.90;;;;;;4978880;28;20045;-76
2023/11/25 10:40:16;;;;;;;13.02;3.17;;;6.50;99.90;;;;;;4997910;28;20042;-76
2023/11/25 10:42:43;;;;;;;13.05;3.15;;;6.50;99.90;;;;;;5005478;28;20106;-76
2023/11/25 10:45:15;;;;;;;13.50;3.30;;;6.50;99.90;;;;;;5002556;28;20076;-76
2023/11/25 10:47:42;;;;;;;12.10;2.67;;;6.50;99.90;;;;;;4990650;28;20538;-76
2023/11/25 10:50:08;;;;;;;9.00;2.45;;;6.50;99.90;;;;;;4998469;28;20123;-76
2023/11/25 10:52:38;;;;;;;7.72;2.08;;;6.40;99.90;;;;;;5004808;28;20045;-76
2023/11/25 10:55:06;;;;;;;10.57;2.78;;;6.50;99.90;;;;;;4984020;28;21272;-76
2023/11/25 10:57:33;;;;;;;8.93;2.15;;;6.40;99.90;;;;;;4986132;28;20548;-75
2023/11/25 11:00:00;;;;;;;9.52;2.83;;;6.50;99.90;;;;;;5008848;28;20046;-75
2023/11/25 11:02:36;;;;;;;11.80;3.15;;;6.50;99.90;;;;;;5004652;28;20041;-75
2023/11/25 11:05:14;;;;;;;10.00;2.40;;;6.60;99.90;;;;;;5003329;28;20049;-76
2023/11/25 11:07:56;;;;;;;8.20;2.10;;;6.60;99.90;;;;;;4994919;28;20049;-75
2023/11/25 11:10:38;;;;;;;9.38;2.20;;;6.60;99.90;;;;;;4990499;28;20142;-75
2023/11/25 11:13:07;;;;;;;15.25;2.45;;;6.70;99.90;;;;;;5004996;28;20471;-75
2023/11/25 11:15:36;;;;;;;13.23;3.70;;;6.80;99.90;;;;;;4979950;28;20382;-75
2023/11/25 11:18:07;;;;;;;13.50;2.90;;;6.90;99.90;;;;;;5004067;28;20052;-75
2023/11/25 11:20:41;;;;;;;12.35;2.67;;;6.90;99.90;;;;;;4999680;28;20049;-75
2023/11/25 11:23:10;;;;;;;15.60;2.75;;;6.90;99.90;;;;;;4988152;28;20080;-75
2023/11/25 11:25:42;;;;;;;14.07;2.53;;;7.00;99.90;;;;;;5009637;28;20081;-75
2023/11/25 11:28:14;;;;;;;12.25;2.47;;;7.00;99.90;;;;;;5007864;28;20038;-75
2023/11/25 11:31:14;;;;;;;19.15;2.85;;;7.10;99.90;;;;;;4990520;28;20045;-75
2023/11/25 11:33:40;;;;;;;14.10;3.08;;;7.10;99.90;;;;;;4986672;28;20042;-75
2023/11/25 11:36:06;;;;;;;10.65;2.47;;;7.10;99.90;;;;;;4992119;28;20042;-75
2023/11/25 11:38:32;;;;;;;14.82;3.22;;;7.10;99.90;;;;;;4987942;28;20199;-75
2023/11/25 11:41:00;;;;;;;15.82;3.42;;;7.10;99.90;;;;;;4977617;28;20669;-75
2023/11/25 11:43:28;;;;;;;17.60;3.50;;;7.20;99.90;;;;;;5006371;28;20068;-74
2023/11/25 11:45:55;;;;;;;16.30;4.40;;;7.30;99.90;;;;;;4987146;28;20180;-74
2023/11/25 11:48:22;;;;;;;17.23;4.78;;;7.40;99.90;;;;;;4990361;28;20064;-74
2023/11/25 11:50:54;;;;;;;18.70;4.88;;;7.40;99.90;;;;;;4992010;28;20042;-74
2023/11/25 11:53:21;;;;;;;14.82;4.82;;;7.50;99.90;;;;;;4995577;28;20049;-74
2023/11/25 11:55:54;;;;;;;15.75;3.80;;;7.60;99.90;;;;;;4991530;28;20045;-74
2023/11/25 11:58:29;;;;;;;15.43;3.15;;;7.70;99.90;;;;;;4979301;28;20501;-74
2023/11/25 12:01:05;;;;;;;13.38;2.50;;;7.70;99.90;;;;;;5000608;28;20038;-74
2023/11/25 12:03:36;;;;;;;12.75;2.05;;;7.70;99.90;;;;;;4986917;28;20057;-75
2023/11/25 12:06:02;;;;;;;10.13;2.33;;;7.80;99.90;;;;;;5004093;28;20964;-74
2023/11/25 12:08:31;;;;;;;11.07;2.22;;;7.80;99.90;;;;;;4993000;28;20052;-74
2023/11/25 12:10:58;;;;;;;11.57;2.67;;;7.80;99.90;;;;;;4975754;28;20100;-74
2023/11/25 12:13:31;;;;;;;9.48;2.00;;;7.80;99.90;;;;;;4998583;28;20144;-75
2023/11/25 12:16:03;;;;;;;10.25;2.47;;;7.80;99.90;;;;;;4983164;28;20049;-74
2023/11/25 12:18:33;;;;;;;11.05;2.38;;;7.80;99.90;;;;;;5000884;28;20061;-74
2023/11/25 12:21:01;;;;;;;;;;;7.80;99.90;;;;;;5004050;28;20077;-75
2023/11/25 12:23:34;;;;;;;6.45;1.27;;;7.90;99.90;;;;;;4991599;28;19972;-74
2023/11/25 12:26:00;;;;;;;7.43;1.60;;;8.00;99.90;;;;;;5000617;28;20551;-74
2023/11/25 12:28:26;;;;;;;6.68;1.20;;;8.00;99.90;;;;;;4992216;28;20074;-74
2023/11/25 12:30:52;;;;;;;6.45;1.30;;;7.90;99.90;;;;;;4995737;28;20050;-75
2023/11/25 12:33:18;;;;;;;6.07;1.20;;;7.70;99.90;;;;;;4992445;28;20103;-75
2023/11/25 12:35:44;;;;;;;4.38;1.00;;;7.40;99.90;;;;;;4995646;28;20520;-75
2023/11/25 12:38:11;;;;;;;6.82;1.17;;;7.20;99.90;;;;;;4994188;28;20061;-75
2023/11/25 12:40:37;;;;;;;6.93;1.10;;;6.90;99.90;;;;;;4997288;28;20095;-75
2023/11/25 12:43:08;;;;;;;5.82;1.40;;;6.80;99.90;;;;;;4998327;28;20033;-75
2023/11/25 12:45:40;;;;;;;5.10;1.13;;;6.70;99.90;;;;;;4995655;28;20501;-75
2023/11/25 12:48:08;;;;;;;4.80;0.82;;;6.50;99.90;;;;;;5002063;28;20053;-75
2023/11/25 12:50:55;;;;;;;5.43;1.00;;;6.50;99.90;;;;;;5012782;28;20069;-76
2023/11/25 12:53:21;;;;;;;3.55;0.65;;;6.40;99.90;;;;;;4979681;28;20045;-75